createdAt,value
2022-09-03T00:01:50.710Z,100727.91
2022-09-03T00:04:25.932Z,100728.56
2022-09-03T00:07:02.709Z,100719.78
2022-09-03T00:09:42.476Z,100716.59
2022-09-03T00:12:16.099Z,100714.78
2022-09-03T00:14:47.735Z,100719.06
2022-09-03T00:17:17.101Z,100722.50
2022-09-03T00:19:55.147Z,100721.78
2022-09-03T00:22:27.453Z,100720.09
2022-09-03T00:24:56.679Z,100725.91
2022-09-03T00:27:26.866Z,100722.06
2022-09-03T00:30:00.606Z,100723.81
2022-09-03T00:33:06.857Z,100719.16
2022-09-03T00:35:40.480Z,100721.28
2022-09-03T00:38:08.061Z,100722.34
2022-09-03T00:40:50.665Z,100718.31
2022-09-03T00:43:26.137Z,100722.72
2022-09-03T00:46:12.478Z,100713.22
2022-09-03T00:49:22.130Z,100712.78
2022-09-03T00:52:23.148Z,100713.91
2022-09-03T00:55:17.082Z,100706.06
2022-09-03T00:58:02.090Z,100706.19
2022-09-03T01:00:29.182Z,100708.94
2022-09-03T01:03:08.161Z,100705.88
2022-09-03T01:05:53.466Z,100700.28
2022-09-03T01:08:32.215Z,100704.78
2022-09-03T01:16:26.916Z,100712.94
2022-09-03T01:19:16.935Z,100710.53
2022-09-03T01:22:20.143Z,100709.50
2022-09-03T01:25:11.784Z,100710.56
2022-09-03T01:27:44.558Z,100710.19
2022-09-03T01:30:18.705Z,100709.03
2022-09-03T01:33:03.076Z,100698.72
2022-09-03T01:35:46.720Z,100700.56
2022-09-03T01:38:24.143Z,100694.03
2022-09-03T01:41:32.405Z,100697.72
2022-09-03T01:44:21.541Z,100705.28
2022-09-03T01:46:56.430Z,100696.72
2022-09-03T01:49:38.323Z,100700.66
2022-09-03T01:52:13.827Z,100702.75
2022-09-03T01:54:50.402Z,100705.41
2022-09-03T01:57:35.648Z,100693.47
2022-09-03T02:00:10.470Z,100696.19
2022-09-03T02:02:43.367Z,100698.84
2022-09-03T02:05:12.357Z,100707.03
2022-09-03T02:07:47.738Z,100705.00
2022-09-03T02:10:19.706Z,100704.56
2022-09-03T02:12:55.318Z,100712.34
2022-09-03T02:15:24.542Z,100719.28
2022-09-03T02:17:56.598Z,100718.72
2022-09-03T02:20:27.183Z,100722.00
2022-09-03T02:22:54.512Z,100725.72
2022-09-03T02:25:24.656Z,100723.56
2022-09-03T02:27:52.193Z,100722.28
2022-09-03T02:30:18.805Z,100723.06
2022-09-03T02:32:45.462Z,100716.09
2022-09-03T02:35:12.777Z,100719.34
2022-09-03T02:37:40.554Z,100715.09
2022-09-03T02:40:10.199Z,100714.88
2022-09-03T02:42:37.131Z,100710.00
2022-09-03T02:45:22.293Z,100714.97
2022-09-03T02:47:53.819Z,100709.59
2022-09-03T02:50:20.389Z,100715.19
2022-09-03T02:52:46.979Z,100707.00
2022-09-03T02:55:13.950Z,100705.88
2022-09-03T02:57:40.464Z,100709.81
2022-09-03T03:00:08.255Z,100714.78
2022-09-03T03:02:35.346Z,100708.41
2022-09-03T03:05:02.192Z,100710.53
2022-09-03T03:07:33.285Z,100718.31
2022-09-03T03:09:59.849Z,100711.47
2022-09-03T03:12:26.668Z,100717.72
2022-09-03T03:14:53.241Z,100711.63
2022-09-03T03:17:20.175Z,100716.97
2022-09-03T03:19:46.711Z,100710.06
2022-09-03T03:22:13.238Z,100715.59
2022-09-03T03:24:39.960Z,100708.97
2022-09-03T03:27:08.173Z,100705.13
2022-09-03T03:29:35.843Z,100701.97
2022-09-03T03:32:02.749Z,100707.72
2022-09-03T03:34:29.289Z,100715.09
2022-09-03T03:36:56.461Z,100710.38
2022-09-03T03:39:23.306Z,100721.19
2022-09-03T03:41:50.097Z,100717.28
2022-09-03T03:44:17.533Z,100722.19
2022-09-03T03:46:45.259Z,100713.06
2022-09-03T03:49:12.140Z,100709.66
2022-09-03T03:51:39.277Z,100713.09
2022-09-03T03:54:06.246Z,100709.19
2022-09-03T03:56:34.082Z,100713.81
2022-09-03T03:59:01.150Z,100712.13
2022-09-03T04:01:28.591Z,100716.81
2022-09-03T04:03:56.566Z,100712.31
2022-09-03T04:06:23.757Z,100710.41
2022-09-03T04:08:50.613Z,100708.72
2022-09-03T04:11:20.059Z,100712.50
2022-09-03T04:13:47.977Z,100706.59
2022-09-03T04:16:19.746Z,100708.75
2022-09-03T04:18:49.133Z,100710.44
2022-09-03T04:21:33.915Z,100711.44
2022-09-03T04:24:00.620Z,100706.44
2022-09-03T04:26:32.895Z,100713.78
2022-09-03T04:29:02.298Z,100711.50
2022-09-03T04:31:28.849Z,100709.09
2022-09-03T04:33:55.952Z,100706.81
2022-09-03T04:36:25.080Z,100703.47
2022-09-03T04:38:54.425Z,100710.06
2022-09-03T04:41:24.836Z,100712.56
2022-09-03T04:43:52.937Z,100707.63
2022-09-03T04:46:21.976Z,100718.06
2022-09-03T04:48:51.168Z,100719.16
2022-09-03T04:51:20.905Z,100711.03
2022-09-03T04:53:53.264Z,100711.47
2022-09-03T04:56:22.330Z,100718.28
2022-09-03T04:58:51.028Z,100712.88
2022-09-03T05:01:22.216Z,100710.91
2022-09-03T05:03:49.013Z,100719.50
2022-09-03T05:06:17.029Z,100718.72
2022-09-03T05:08:44.481Z,100727.06
2022-09-03T05:11:12.048Z,100727.53
2022-09-03T05:13:38.733Z,100731.81
2022-09-03T05:16:08.235Z,100736.06
2022-09-03T05:18:38.493Z,100735.50
2022-09-03T05:21:07.541Z,100743.09
2022-09-03T05:23:39.959Z,100742.06
2022-09-03T05:26:10.082Z,100744.97
2022-09-03T05:28:39.775Z,100752.41
2022-09-03T05:31:11.572Z,100757.75
2022-09-03T05:33:49.444Z,100753.00
2022-09-03T05:36:18.848Z,100756.47
2022-09-03T05:38:46.152Z,100747.97
2022-09-03T05:41:14.864Z,100750.28
2022-09-03T05:43:42.155Z,100742.59
2022-09-03T05:46:11.414Z,100745.97
2022-09-03T05:48:40.545Z,100736.63
2022-09-03T05:51:13.001Z,100726.00
2022-09-03T05:53:40.877Z,100737.56
2022-09-03T05:56:13.373Z,100740.03
2022-09-03T05:58:44.121Z,100746.22
2022-09-03T06:01:19.169Z,100745.97
2022-09-03T06:03:48.409Z,100744.69
2022-09-03T06:06:15.571Z,100746.63
2022-09-03T06:08:44.697Z,100748.63
2022-09-03T06:11:11.453Z,100757.22
2022-09-03T06:13:38.219Z,100755.66
2022-09-03T06:16:07.456Z,100750.00
2022-09-03T06:18:34.191Z,100751.91
2022-09-03T06:21:06.312Z,100755.78
2022-09-03T06:23:35.073Z,100761.31
2022-09-03T06:26:05.959Z,100761.22
2022-09-03T06:28:37.847Z,100759.44
2022-09-03T06:31:07.652Z,100753.00
2022-09-03T06:33:36.368Z,100752.00
2022-09-03T06:36:08.634Z,100748.66
2022-09-03T06:38:37.217Z,100746.56
2022-09-03T06:41:06.833Z,100744.94
2022-09-03T06:43:36.297Z,100751.59
2022-09-03T06:46:07.591Z,100743.38
2022-09-03T06:48:36.063Z,100745.06
2022-09-03T06:51:08.960Z,100740.59
2022-09-03T06:53:37.869Z,100744.69
2022-09-03T06:56:10.836Z,100744.66
2022-09-03T06:58:45.455Z,100752.91
2022-09-03T07:01:19.551Z,100744.00
2022-09-03T07:03:48.160Z,100748.47
2022-09-03T07:06:17.716Z,100759.69
2022-09-03T07:08:46.171Z,100754.69
2022-09-03T07:11:16.222Z,100734.91
2022-09-03T07:13:46.207Z,100734.31
2022-09-03T07:16:16.771Z,100743.47
2022-09-03T07:18:44.541Z,100737.59
2022-09-03T07:21:13.387Z,100725.75
2022-09-03T07:23:41.941Z,100737.03
2022-09-03T07:26:12.738Z,100727.53
2022-09-03T07:28:41.437Z,100722.47
2022-09-03T07:31:11.802Z,100726.25
2022-09-03T07:33:39.474Z,100734.78
2022-09-03T07:36:14.080Z,100724.09
2022-09-03T07:38:44.958Z,100716.38
2022-09-03T07:41:21.444Z,100724.16
2022-09-03T07:43:56.920Z,100721.19
2022-09-03T07:46:26.529Z,100723.13
2022-09-03T07:48:58.889Z,100724.94
2022-09-03T07:51:28.188Z,100744.75
2022-09-03T07:54:00.169Z,100730.16
2022-09-03T07:56:27.457Z,100726.03
2022-09-03T07:58:57.073Z,100724.34
2022-09-03T08:01:25.981Z,100744.84
2022-09-03T08:03:53.349Z,100740.75
2022-09-03T08:06:23.380Z,100737.94
2022-09-03T08:09:04.148Z,100721.81
2022-09-03T08:11:31.569Z,100725.41
2022-09-03T08:14:02.584Z,100707.50
2022-09-03T08:16:31.171Z,100713.38
2022-09-03T08:18:58.199Z,100722.47
2022-09-03T08:21:26.423Z,100725.69
2022-09-03T08:23:54.896Z,100720.88
2022-09-03T08:26:22.671Z,100731.84
2022-09-03T08:28:51.011Z,100730.16
2022-09-03T08:31:25.114Z,100720.28
2022-09-03T08:33:53.735Z,100730.00
2022-09-03T08:36:23.692Z,100719.75
2022-09-03T08:38:53.021Z,100727.00
2022-09-03T08:41:33.899Z,100719.03
2022-09-03T08:44:31.372Z,100715.06
2022-09-03T08:47:06.141Z,100719.06
2022-09-03T08:49:47.460Z,100726.25
2022-09-03T08:52:30.007Z,100731.56
2022-09-03T08:55:52.437Z,100715.44
2022-09-03T08:58:30.133Z,100708.91
2022-09-03T09:01:24.687Z,100721.59
2022-09-03T09:04:08.354Z,100722.69
2022-09-03T09:06:51.903Z,100718.53
2022-09-03T09:09:55.500Z,100714.16
2022-09-03T09:12:52.845Z,100718.72
2022-09-03T09:15:39.260Z,100719.13
2022-09-03T09:18:24.745Z,100706.88
2022-09-03T09:21:21.406Z,100702.72
2022-09-03T09:23:50.182Z,100705.31
2022-09-03T09:26:19.728Z,100703.56
2022-09-03T09:28:52.856Z,100694.69
2022-09-03T09:31:20.181Z,100698.16
2022-09-03T09:33:47.057Z,100691.19
2022-09-03T09:36:19.352Z,100704.69
2022-09-03T09:38:49.387Z,100702.00
2022-09-03T09:41:20.613Z,100702.59
2022-09-03T09:43:48.464Z,100693.78
2022-09-03T09:46:21.456Z,100720.69
2022-09-03T09:48:55.013Z,100693.25
2022-09-03T09:51:31.063Z,100691.28
2022-09-03T09:54:19.982Z,100693.09
2022-09-03T09:56:47.663Z,100682.38
2022-09-03T09:59:15.277Z,100682.03
2022-09-03T10:01:44.889Z,100680.22
2022-09-03T10:04:23.011Z,100687.22
2022-09-03T10:07:05.249Z,100676.69
2022-09-03T10:09:33.377Z,100675.38
2022-09-03T10:12:14.446Z,100670.81
2022-09-03T10:14:47.625Z,100682.59
2022-09-03T10:17:38.170Z,100670.03
2022-09-03T10:20:30.357Z,100666.38
2022-09-03T10:23:01.899Z,100663.91
2022-09-03T10:25:42.780Z,100664.75
2022-09-03T10:28:13.181Z,100671.78
2022-09-03T10:30:55.525Z,100661.09
2022-09-03T10:33:49.949Z,100668.94
2022-09-03T10:36:23.577Z,100644.72
2022-09-03T10:39:19.416Z,100662.78
2022-09-03T10:42:04.585Z,100642.13
2022-09-03T10:44:48.015Z,100645.13
2022-09-03T10:47:44.864Z,100641.59
2022-09-03T10:50:16.655Z,100641.47
2022-09-03T10:53:06.953Z,100643.53
2022-09-03T10:55:57.035Z,100655.25
2022-09-03T10:58:48.774Z,100642.66
2022-09-03T11:01:32.282Z,100695.66
2022-09-03T11:04:20.841Z,100644.63
2022-09-03T11:06:59.658Z,100647.78
2022-09-03T11:09:43.945Z,100633.13
2022-09-03T11:12:23.709Z,100639.91
2022-09-03T11:15:14.431Z,100628.59
2022-09-03T11:17:49.021Z,100672.16
2022-09-03T11:20:21.560Z,100634.91
2022-09-03T11:22:52.942Z,100625.03
2022-09-03T11:25:25.812Z,100630.19
2022-09-03T11:28:19.242Z,100625.59
2022-09-03T11:31:27.554Z,100623.19
2022-09-03T11:34:07.383Z,100615.09
2022-09-03T11:36:38.161Z,100611.84
2022-09-03T11:39:35.630Z,100622.50
2022-09-03T11:42:12.411Z,100635.59
2022-09-03T11:44:51.065Z,100630.50
2022-09-03T11:47:24.007Z,100616.88
2022-09-03T11:49:53.721Z,100620.91
2022-09-03T11:52:28.945Z,100624.31
2022-09-03T11:54:56.155Z,100618.06
2022-09-03T11:57:29.545Z,100607.94
2022-09-03T12:00:13.342Z,100625.59
2022-09-03T12:02:58.960Z,100614.19
2022-09-03T12:05:43.537Z,100612.94
2022-09-03T12:08:37.435Z,100603.19
2022-09-03T12:11:24.234Z,100622.91
2022-09-03T12:14:10.421Z,100621.59
2022-09-03T12:17:12.869Z,100605.06
2022-09-03T12:19:52.449Z,100611.72
2022-09-03T12:22:21.852Z,100605.66
2022-09-03T12:24:50.710Z,100599.06
2022-09-03T12:27:24.185Z,100605.66
2022-09-03T12:29:57.937Z,100603.47
2022-09-03T12:32:24.808Z,100608.19
2022-09-03T12:34:52.139Z,100613.38
2022-09-03T12:40:29.099Z,100596.94
2022-09-03T12:46:17.129Z,100595.97
2022-09-03T12:51:54.197Z,100583.44
2022-09-03T12:54:22.913Z,100593.47
2022-09-03T12:56:56.432Z,100585.94
2022-09-03T12:59:25.458Z,100577.72
2022-09-03T13:01:56.445Z,100582.66
2022-09-03T13:04:32.521Z,100584.53
2022-09-03T13:07:10.849Z,100580.09
2022-09-03T13:09:39.768Z,100585.22
2022-09-03T13:12:07.325Z,100580.25
2022-09-03T13:14:48.222Z,100588.38
2022-09-03T13:17:37.700Z,100573.97
2022-09-03T13:20:17.512Z,100583.94
2022-09-03T13:23:02.040Z,100575.34
2022-09-03T13:26:06.018Z,100579.84
2022-09-03T13:28:50.775Z,100582.00
2022-09-03T13:31:33.477Z,100577.38
2022-09-03T13:34:06.877Z,100577.16
2022-09-03T13:37:20.392Z,100578.09
2022-09-03T13:39:53.130Z,100575.81
2022-09-03T13:42:26.976Z,100570.38
2022-09-03T13:45:01.755Z,100572.03
2022-09-03T13:47:34.322Z,100570.31
2022-09-03T13:50:24.168Z,100581.56
2022-09-03T13:53:23.412Z,100570.69
2022-09-03T13:55:56.438Z,100572.94
2022-09-03T13:58:33.449Z,100573.97
2022-09-03T14:01:03.412Z,100566.38
2022-09-03T14:03:37.445Z,100558.25
2022-09-03T14:06:38.207Z,100552.06
2022-09-03T14:09:19.656Z,100557.22
2022-09-03T14:11:49.341Z,100560.66
2022-09-03T14:14:37.182Z,100550.41
2022-09-03T14:17:19.293Z,100562.25
2022-09-03T14:19:56.015Z,100547.53
2022-09-03T14:22:29.454Z,100554.63
2022-09-03T14:25:02.547Z,100559.06
2022-09-03T14:27:31.332Z,100567.31
2022-09-03T14:30:18.672Z,100555.44
2022-09-03T14:33:03.872Z,100544.75
2022-09-03T14:35:42.235Z,100550.31
2022-09-03T14:38:45.579Z,100551.88
2022-09-03T14:41:16.765Z,100554.22
2022-09-03T14:44:00.874Z,100552.94
2022-09-03T14:46:56.737Z,100551.75
2022-09-03T14:49:46.566Z,100554.22
2022-09-03T14:52:28.153Z,100544.94
2022-09-03T14:55:11.840Z,100549.88
2022-09-03T14:58:05.125Z,100549.94
2022-09-03T15:00:50.585Z,100561.44
2022-09-03T15:03:54.999Z,100545.81
2022-09-03T15:06:43.420Z,100541.50
2022-09-03T15:09:22.865Z,100549.19
2022-09-03T15:12:00.326Z,100541.84
2022-09-03T15:14:35.240Z,100545.59
2022-09-03T15:17:20.708Z,100543.44
2022-09-03T15:20:11.013Z,100540.41
2022-09-03T15:22:49.930Z,100539.13
2022-09-03T15:25:31.001Z,100538.81
2022-09-03T15:28:22.028Z,100547.59
2022-09-03T15:31:16.837Z,100542.84
2022-09-03T15:34:10.407Z,100542.41
2022-09-03T15:36:50.864Z,100539.03
2022-09-03T15:39:31.547Z,100537.50
2022-09-03T15:42:01.514Z,100546.00
2022-09-03T15:44:43.767Z,100549.53
2022-09-03T15:47:21.371Z,100549.63
2022-09-03T15:50:06.553Z,100548.84
2022-09-03T15:53:10.672Z,100545.16
2022-09-03T15:55:40.788Z,100549.38
2022-09-03T15:58:42.948Z,100548.44
2022-09-03T16:01:34.616Z,100550.91
2022-09-03T16:04:10.167Z,100555.06
2022-09-03T16:07:03.489Z,100559.38
2022-09-03T16:09:35.327Z,100558.81
2022-09-03T16:12:19.796Z,100548.03
2022-09-03T16:14:55.126Z,100551.63
2022-09-03T16:17:31.691Z,100549.38
2022-09-03T16:20:16.116Z,100543.88
2022-09-03T16:23:02.929Z,100546.75
2022-09-03T16:25:38.764Z,100547.81
2022-09-03T16:28:30.117Z,100550.59
2022-09-03T16:31:12.287Z,100551.63
2022-09-03T16:33:52.196Z,100550.91
2022-09-03T16:36:46.882Z,100563.72
2022-09-03T16:39:38.016Z,100551.59
2022-09-03T16:42:22.390Z,100546.09
2022-09-03T16:45:17.848Z,100554.97
2022-09-03T16:48:14.588Z,100550.47
2022-09-03T16:50:59.529Z,100546.84
2022-09-03T16:53:42.319Z,100557.84
2022-09-03T16:56:26.257Z,100550.22
2022-09-03T16:59:01.711Z,100555.66
2022-09-03T17:02:18.283Z,100555.34
2022-09-03T17:05:12.426Z,100555.81
2022-09-03T17:07:43.427Z,100554.38
2022-09-03T17:10:34.060Z,100553.69
2022-09-03T17:13:19.828Z,100551.78
2022-09-03T17:16:20.344Z,100566.16
2022-09-03T17:19:20.653Z,100557.16
2022-09-03T17:22:12.496Z,100557.22
2022-09-03T17:25:03.934Z,100555.28
2022-09-03T17:27:47.490Z,100555.38
2022-09-03T17:30:23.974Z,100567.34
2022-09-03T17:33:04.277Z,100565.34
2022-09-03T17:35:49.928Z,100571.63
2022-09-03T17:38:45.095Z,100568.44
2022-09-03T17:41:22.674Z,100577.50
2022-09-03T17:43:49.543Z,100580.31
2022-09-03T17:47:14.557Z,100576.09
2022-09-03T17:49:48.475Z,100582.34
2022-09-03T17:52:30.339Z,100590.34
2022-09-03T17:55:02.600Z,100590.50
2022-09-03T17:57:38.665Z,100595.44
2022-09-03T18:00:10.765Z,100603.88
2022-09-03T18:02:50.389Z,100596.00
2022-09-03T18:05:22.214Z,100607.94
2022-09-03T18:08:05.406Z,100606.69
2022-09-03T18:10:56.469Z,100609.00
2022-09-03T18:13:53.389Z,100622.47
2022-09-03T18:16:35.309Z,100626.19
2022-09-03T18:20:04.552Z,100622.25
2022-09-03T18:23:05.664Z,100622.28
2022-09-03T18:25:53.663Z,100634.81
2022-09-03T18:28:54.020Z,100641.13
2022-09-03T18:31:39.723Z,100640.75
2022-09-03T18:34:26.661Z,100639.47
2022-09-03T18:37:14.996Z,100643.72
2022-09-03T18:40:00.470Z,100651.53
2022-09-03T18:42:56.941Z,100659.31
2022-09-03T18:49:35.947Z,100655.78
2022-09-03T18:52:33.939Z,100667.44
2022-09-03T18:55:30.959Z,100665.81
2022-09-03T18:59:01.500Z,100657.53
2022-09-03T19:01:54.018Z,100664.63
2022-09-03T19:04:56.425Z,100659.19
2022-09-03T19:08:00.118Z,100657.53
2022-09-03T19:10:59.438Z,100654.19
2022-09-03T19:13:56.803Z,100666.31
2022-09-03T19:17:25.406Z,100661.66
2022-09-03T19:20:23.005Z,100667.72
2022-09-03T19:23:08.361Z,100665.41
2022-09-03T19:25:55.574Z,100674.69
2022-09-03T19:28:42.230Z,100685.34
2022-09-03T19:31:53.420Z,100685.06
2022-09-03T19:35:00.561Z,100680.44
2022-09-03T19:38:34.488Z,100692.16
2022-09-03T19:41:39.400Z,100690.94
2022-09-03T19:44:46.497Z,100689.81
2022-09-03T19:47:58.104Z,100697.13
2022-09-03T19:50:52.557Z,100697.63
2022-09-03T19:53:38.622Z,100695.69
2022-09-03T19:56:47.490Z,100696.50
2022-09-03T19:59:39.359Z,100701.75
2022-09-03T20:02:24.718Z,100704.63
2022-09-03T20:05:16.658Z,100704.53
2022-09-03T20:08:03.871Z,100706.97
2022-09-03T20:10:34.189Z,100709.22
2022-09-03T20:13:03.725Z,100707.56
2022-09-03T20:15:55.699Z,100704.97
2022-09-03T20:18:44.292Z,100712.91
2022-09-03T20:21:25.494Z,100716.16
2022-09-03T20:24:28.074Z,100714.72
2022-09-03T20:27:12.947Z,100715.00
2022-09-03T20:29:52.989Z,100713.91
2022-09-03T20:32:44.847Z,100719.63
2022-09-03T20:35:25.797Z,100714.31
2022-09-03T20:38:09.519Z,100716.34
2022-09-03T20:41:06.461Z,100718.06
2022-09-03T20:43:57.128Z,100715.91
2022-09-03T20:46:39.279Z,100728.13
2022-09-03T20:49:24.548Z,100724.25
2022-09-03T20:52:13.455Z,100728.13
2022-09-03T20:54:57.972Z,100728.38
2022-09-03T20:57:45.708Z,100732.81
2022-09-03T21:00:16.324Z,100728.91
2022-09-03T21:03:11.552Z,100735.88
2022-09-03T21:05:46.250Z,100737.91
2022-09-03T21:08:45.839Z,100738.00
2022-09-03T21:11:18.875Z,100745.16
2022-09-03T21:13:57.473Z,100741.97
2022-09-03T21:16:30.423Z,100739.53
2022-09-03T21:19:19.681Z,100739.16
2022-09-03T21:22:19.748Z,100744.06
2022-09-03T21:24:55.767Z,100746.22
2022-09-03T21:27:32.346Z,100750.72
2022-09-03T21:30:19.298Z,100748.47
2022-09-03T21:32:49.695Z,100752.97
2022-09-03T21:35:25.251Z,100752.00
2022-09-03T21:38:04.021Z,100753.72
2022-09-03T21:40:32.731Z,100755.53
2022-09-03T21:43:14.996Z,100755.44
2022-09-03T21:45:53.277Z,100762.03
2022-09-03T21:48:35.487Z,100761.75
2022-09-03T21:51:09.117Z,100768.91
2022-09-03T21:53:40.759Z,100770.03
2022-09-03T21:56:07.266Z,100773.63
2022-09-03T21:58:50.845Z,100771.91
2022-09-03T22:01:29.835Z,100775.53
2022-09-03T22:03:56.447Z,100770.88
2022-09-03T22:06:31.459Z,100770.34
2022-09-03T22:09:08.086Z,100769.34
2022-09-03T22:11:45.818Z,100778.53
2022-09-03T22:14:17.793Z,100765.25
2022-09-03T22:17:03.889Z,100774.41
2022-09-03T22:19:37.279Z,100769.41
2022-09-03T22:22:18.068Z,100769.34
2022-09-03T22:25:04.666Z,100769.53
2022-09-03T22:27:49.339Z,100771.00
2022-09-03T22:30:21.237Z,100771.03
2022-09-03T22:33:03.067Z,100766.03
2022-09-03T22:35:37.089Z,100770.09
2022-09-03T22:38:30.133Z,100763.66
2022-09-03T22:41:15.999Z,100773.75
2022-09-03T22:43:48.746Z,100766.91
2022-09-03T22:46:18.441Z,100768.75
2022-09-03T22:49:10.517Z,100776.25
2022-09-03T22:51:55.597Z,100784.84
2022-09-03T22:54:44.122Z,100779.72
2022-09-03T22:57:12.407Z,100775.69
2022-09-03T22:59:44.164Z,100774.34
2022-09-03T23:02:21.373Z,100770.41
2022-09-03T23:04:59.074Z,100767.47
2022-09-03T23:07:38.985Z,100772.94
2022-09-03T23:10:25.556Z,100770.63
2022-09-03T23:13:23.292Z,100778.31
2022-09-03T23:16:17.303Z,100780.16
2022-09-03T23:18:53.266Z,100776.41
2022-09-03T23:21:41.174Z,100778.31
2022-09-03T23:24:35.953Z,100782.09
2022-09-03T23:27:10.492Z,100777.22
2022-09-03T23:29:56.381Z,100779.94
2022-09-03T23:32:25.579Z,100778.66
2022-09-03T23:35:14.588Z,100785.09
2022-09-03T23:37:58.337Z,100781.81
2022-09-03T23:40:47.525Z,100779.13
2022-09-03T23:43:39.812Z,100783.75
2022-09-03T23:46:43.579Z,100779.88
2022-09-03T23:49:38.380Z,100772.97
2022-09-03T23:52:28.515Z,100777.78
2022-09-03T23:55:36.018Z,100775.66
2022-09-03T23:58:26.167Z,100773.88
